Time;durP1;ratioP1;P1;durP2;ratioP2;P2;SDS_P1;SDS_P2;PMS_P1;PMS_P2;Temp;Humidity;BMP_temperature;BMP_pressure;BME280_temperature;BME280_humidity;BME280_pressure;Samples;Min_cycle;Max_cycle;Signal;HPM_P1;HPM_P2
2023/01/16 00:00:39;;;;;;;3.13;2.27;;;4.00;99.90;5.30;96029.00;;;;5071282;28;20707;-85
2023/01/16 00:03:28;;;;;;;2.97;1.63;;;4.00;99.90;5.20;96012.00;;;;5072227;28;20297;-85
2023/01/16 00:06:17;;;;;;;1.57;1.40;;;4.00;99.90;5.40;96006.00;;;;5086219;28;20199;-84
2023/01/16 00:09:06;;;;;;;1.53;0.70;;;4.10;99.90;5.40;95999.00;;;;5092288;28;20577;-85
2023/01/16 00:11:55;;;;;;;1.20;1.10;;;4.10;99.90;5.50;96004.00;;;;5088850;28;20249;-86
2023/01/16 00:14:45;;;;;;;2.20;1.00;;;4.10;99.90;5.60;95987.00;;;;5075395;28;20260;-84
2023/01/16 00:17:33;;;;;;;1.27;1.00;;;4.20;99.90;5.60;95981.00;;;;5071868;28;20253;-84
2023/01/16 00:20:23;;;;;;;1.77;1.40;;;4.20;99.90;5.30;95983.00;;;;5073059;28;20281;-85
2023/01/16 00:23:12;;;;;;;1.30;1.10;;;4.20;99.90;5.30;95972.00;;;;5073185;28;20224;-84
2023/01/16 00:26:00;;;;;;;1.77;1.47;;;4.20;99.90;5.60;95973.00;;;;5071382;28;20246;-86
2023/01/16 00:28:49;;;;;;;1.07;0.97;;;4.20;99.90;5.60;95951.00;;;;5071352;28;20196;-86
2023/01/16 00:31:39;;;;;;;1.07;1.03;;;4.20;99.90;5.50;95944.00;;;;5070383;28;20204;-84
2023/01/16 00:34:28;;;;;;;1.53;0.97;;;4.20;99.90;5.30;95945.00;;;;5075019;28;20558;-85
2023/01/16 00:37:17;;;;;;;1.33;0.87;;;4.20;99.90;5.10;95949.00;;;;5084822;28;20219;-85
2023/01/16 00:40:07;;;;;;;1.43;0.90;;;4.10;99.90;4.70;95941.00;;;;5087443;28;20652;-85
2023/01/16 00:42:56;;;;;;;3.37;0.90;;;4.00;99.90;4.50;95948.00;;;;5086229;28;20231;-85
2023/01/16 00:45:44;;;;;;;1.33;0.90;;;4.20;99.90;5.10;95941.00;;;;5081523;28;20633;-85
2023/01/16 00:48:34;;;;;;;1.33;1.23;;;3.90;99.90;5.20;95943.00;;;;5070643;28;20238;-85
2023/01/16 00:51:23;;;;;;;0.80;0.80;;;4.30;99.90;5.30;95936.00;;;;5071061;28;20200;-85
2023/01/16 00:54:12;;;;;;;1.23;0.80;;;3.90;99.90;5.40;95936.00;;;;5069956;28;20639;-85
2023/01/16 00:57:00;;;;;;;0.83;0.63;;;4.10;99.90;5.40;95939.00;;;;5070935;28;20200;-83
2023/01/16 00:59:49;;;;;;;0.77;0.77;;;4.00;99.90;5.40;95940.00;;;;5070374;28;20236;-85
2023/01/16 01:02:38;;;;;;;0.90;0.77;;;4.00;99.90;5.50;95939.00;;;;5070736;28;20231;-84
2023/01/16 01:05:28;;;;;;;0.67;0.67;;;4.00;99.90;5.50;95933.00;;;;5070869;28;20206;-84
2023/01/16 01:08:17;;;;;;;0.70;0.70;;;4.00;99.90;5.40;95934.00;;;;5070693;28;20207;-84
2023/01/16 01:11:10;;;;;;;0.77;0.77;;;4.10;99.90;5.40;95934.00;;;;5075299;28;20214;-85
2023/01/16 01:13:59;;;;;;;0.93;0.60;;;4.00;99.90;5.50;95925.00;;;;5083733;28;20223;-83
2023/01/16 01:16:49;;;;;;;1.30;0.80;;;4.00;99.90;5.40;95934.00;;;;5071596;28;20199;-84
2023/01/16 01:19:37;;;;;;;0.70;0.70;;;4.00;99.90;5.40;95944.00;;;;5070636;28;20196;-85
2023/01/16 01:22:27;;;;;;;1.20;1.10;;;4.00;99.90;5.20;95938.00;;;;5069086;28;20732;-85
2023/01/16 01:25:16;;;;;;;0.67;0.67;;;4.10;99.90;5.00;95933.00;;;;5080039;28;20220;-86
2023/01/16 01:28:05;;;;;;;0.93;0.80;;;4.00;99.90;4.70;95940.00;;;;5091046;28;20226;-85
2023/01/16 01:30:54;;;;;;;1.27;1.00;;;3.90;99.90;4.70;95941.00;;;;5090794;28;20259;-84
2023/01/16 01:33:43;;;;;;;1.60;0.83;;;4.10;99.90;5.10;95942.00;;;;5078188;28;20227;-85
2023/01/16 01:36:31;;;;;;;1.87;1.53;;;3.80;99.90;5.20;95937.00;;;;5077787;28;20203;-85
2023/01/16 01:39:22;;;;;;;0.80;0.67;;;3.80;99.90;5.20;95923.00;;;;5085265;28;20293;-85
2023/01/16 01:45:22;;;;;;;1.13;1.03;;;3.90;99.90;5.10;95919.00;;;;5078803;28;20236;-84
2023/01/16 01:48:23;;;;;;;0.60;0.60;;;3.90;99.90;4.90;95914.00;;;;5070704;28;20250;-85
2023/01/16 01:51:17;;;;;;;0.80;0.60;;;3.80;99.90;5.20;95925.00;;;;5071597;28;20677;-86
2023/01/16 01:54:10;;;;;;;0.30;0.30;;;3.80;99.90;5.20;95909.00;;;;5073536;28;20255;-86
2023/01/16 01:57:05;;;;;;;0.40;0.40;;;3.90;99.90;4.90;95916.00;;;;5069508;28;20245;-87
2023/01/16 01:59:59;;;;;;;0.50;0.50;;;3.80;99.90;5.00;95910.00;;;;5069000;28;20732;-87
2023/01/16 02:02:56;;;;;;;0.30;0.30;;;3.80;99.90;5.00;95915.00;;;;5070222;28;20236;-88
2023/01/16 02:05:49;;;;;;;0.37;0.30;;;3.80;99.90;4.90;95912.00;;;;5072304;28;20207;-87
2023/01/16 02:08:38;;;;;;;0.40;0.40;;;3.70;99.90;4.90;95906.00;;;;5072078;28;20211;-87
2023/01/16 02:11:36;;;;;;;0.30;0.30;;;3.70;99.90;4.80;95907.00;;;;5072241;28;20200;-87
2023/01/16 02:14:29;;;;;;;0.40;0.40;;;3.70;99.90;4.70;95900.00;;;;5072232;28;20230;-87
2023/01/16 02:20:27;;;;;;;0.30;0.30;;;3.60;99.90;4.70;95894.00;;;;5072787;28;20672;-88
2023/01/16 02:23:49;;;;;;;0.30;0.30;;;3.60;99.90;4.80;95895.00;;;;5071265;28;20232;-87
2023/01/16 02:27:13;;;;;;;0.43;0.43;;;3.60;99.90;4.70;95886.00;;;;5071970;28;20196;-87
2023/01/16 02:30:29;;;;;;;0.40;0.40;;;3.70;99.90;4.70;95880.00;;;;5081544;28;20608;-87
2023/01/16 02:33:27;;;;;;;0.40;0.40;;;3.40;99.90;4.50;95873.00;;;;5082665;28;20224;-87
2023/01/16 02:36:24;;;;;;;0.30;0.30;;;3.50;99.90;4.40;95871.00;;;;5088782;28;20207;-87
2023/01/16 02:39:24;;;;;;;0.37;0.37;;;3.30;99.90;4.40;95864.00;;;;5091119;28;20686;-87
2023/01/16 02:42:25;;;;;;;0.30;0.30;;;3.80;99.90;4.30;95858.00;;;;5070453;28;20192;-87
2023/01/16 02:45:24;;;;;;;0.40;0.40;;;3.40;99.90;4.40;95862.00;;;;5073992;28;20211;-87
2023/01/16 02:48:24;;;;;;;0.50;0.50;;;3.10;99.90;4.40;95851.00;;;;5070423;28;20207;-88
2023/01/16 02:51:22;;;;;;;0.30;0.30;;;3.20;99.90;4.10;95846.00;;;;5072142;28;20537;-87
2023/01/16 02:54:18;;;;;;;0.40;0.40;;;3.50;99.90;3.90;95844.00;;;;5086232;28;20306;-87
2023/01/16 02:57:13;;;;;;;1.17;0.40;;;3.00;99.90;3.90;95844.00;;;;5089703;28;20207;-87
2023/01/16 03:00:05;;;;;;;0.30;0.30;;;3.00;99.90;4.00;95845.00;;;;5070625;28;20951;-87
2023/01/16 03:02:53;;;;;;;0.40;0.40;;;3.00;99.90;4.00;95833.00;;;;5070210;28;20622;-87
2023/01/16 03:05:49;;;;;;;0.63;0.63;;;2.90;99.90;4.00;95839.00;;;;5071374;28;20210;-87
2023/01/16 03:08:44;;;;;;;3.70;0.50;;;2.90;99.90;3.80;95845.00;;;;5070350;28;20519;-87
2023/01/16 03:11:38;;;;;;;0.40;0.40;;;3.00;99.90;4.00;95844.00;;;;5072780;28;20196;-87
2023/01/16 03:14:37;;;;;;;0.53;0.50;;;2.80;99.90;4.00;95849.00;;;;5070512;28;20537;-87
2023/01/16 03:17:40;;;;;;;0.60;0.30;;;2.90;99.90;3.80;95837.00;;;;5070755;28;20528;-89
2023/01/16 03:20:41;;;;;;;0.60;0.50;;;2.80;99.90;3.60;95823.00;;;;5070526;28;20942;-88
2023/01/16 03:23:41;;;;;;;1.80;0.83;;;3.30;99.90;3.60;95818.00;;;;5070925;28;20463;-88
2023/01/16 03:26:37;;;;;;;0.30;0.30;;;2.70;99.90;3.80;95826.00;;;;5079108;28;20635;-87
2023/01/16 03:29:33;;;;;;;0.50;0.50;;;2.70;99.90;3.80;95838.00;;;;5069351;28;20422;-87
2023/01/16 03:32:32;;;;;;;0.30;0.30;;;2.60;99.90;3.60;95822.00;;;;5069267;28;20422;-88
2023/01/16 03:35:26;;;;;;;0.40;0.40;;;3.90;99.90;3.60;95810.00;;;;5079469;28;20426;-87
2023/01/16 03:38:18;;;;;;;0.30;0.30;;;2.50;99.90;3.60;95817.00;;;;5079732;28;20559;-88
2023/01/16 03:41:12;;;;;;;0.40;0.40;;;2.50;99.90;3.60;95814.00;;;;5077137;28;20431;-87
2023/01/16 03:44:07;;;;;;;0.33;0.33;;;2.80;99.90;3.60;95811.00;;;;5074421;28;20842;-87
2023/01/16 03:46:59;;;;;;;0.50;0.50;;;2.50;99.90;3.60;95801.00;;;;5070514;28;20927;-87
2023/01/16 03:49:54;;;;;;;0.20;0.20;;;2.40;99.90;3.50;95799.00;;;;5070423;28;20465;-86
2023/01/16 03:52:47;;;;;;;1.07;0.37;;;2.40;99.90;3.40;95794.00;;;;5071542;28;20215;-87
2023/01/16 03:55:43;;;;;;;1.13;0.70;;;2.30;99.90;3.30;95793.00;;;;5082468;28;20954;-87
2023/01/16 03:58:36;;;;;;;0.50;0.50;;;2.30;99.90;3.30;95785.00;;;;5089265;28;20492;-87
2023/01/16 04:01:35;;;;;;;1.33;1.13;;;2.20;99.90;3.20;95782.00;;;;5090305;28;20452;-87
2023/01/16 04:04:28;;;;;;;0.50;0.50;;;2.20;99.90;3.10;95781.00;;;;5075841;28;20474;-87
2023/01/16 04:07:27;;;;;;;0.50;0.50;;;2.10;99.90;3.10;95795.00;;;;5089982;28;20436;-86
2023/01/16 04:10:20;;;;;;;0.30;0.30;;;2.60;99.90;3.00;95779.00;;;;5089804;28;20414;-87
2023/01/16 04:13:14;;;;;;;1.60;0.40;;;2.00;99.90;2.70;95780.00;;;;5078856;28;20473;-86
2023/01/16 04:16:09;;;;;;;1.10;1.00;;;1.90;99.90;2.30;95776.00;;;;5069962;28;20942;-86
2023/01/16 04:19:00;;;;;;;0.50;0.50;;;1.80;99.90;2.40;95792.00;;;;5069058;28;20423;-86
2023/01/16 04:21:49;;;;;;;0.70;0.70;;;1.60;99.90;2.50;95786.00;;;;5068941;28;20434;-86
2023/01/16 04:24:38;;;;;;;1.90;0.80;;;1.60;99.90;2.60;95794.00;;;;5086364;28;20468;-86
2023/01/16 04:27:27;;;;;;;0.90;0.80;;;1.60;99.90;2.60;95789.00;;;;5071907;28;20426;-86
2023/01/16 04:30:16;;;;;;;0.63;0.63;;;1.60;99.90;2.60;95795.00;;;;5069397;28;20423;-86
2023/01/16 04:33:07;;;;;;;1.20;0.70;;;1.60;99.90;2.70;95802.00;;;;5075291;28;20456;-86
2023/01/16 04:35:56;;;;;;;2.10;0.60;;;1.50;99.90;2.50;95798.00;;;;5089616;28;20797;-86
2023/01/16 04:38:45;;;;;;;0.50;0.50;;;1.50;99.90;2.60;95806.00;;;;5079832;28;20441;-86
2023/01/16 04:41:36;;;;;;;1.17;0.60;;;2.00;99.90;2.70;95787.00;;;;5086934;28;20516;-87
2023/01/16 04:44:25;;;;;;;0.70;0.70;;;1.50;99.90;2.60;95795.00;;;;5082557;28;20480;-87
2023/01/16 04:47:14;;;;;;;0.80;0.80;;;1.50;99.90;2.50;95792.00;;;;5078347;28;20435;-88
2023/01/16 04:50:06;;;;;;;1.10;1.00;;;1.50;99.90;2.50;95777.00;;;;5070304;28;20441;-87
2023/01/16 04:52:55;;;;;;;0.77;0.77;;;1.50;99.90;2.60;95774.00;;;;5070034;28;20538;-87
2023/01/16 04:55:43;;;;;;;0.80;0.80;;;1.40;99.90;2.60;95773.00;;;;5070090;28;20411;-87
2023/01/16 04:58:32;;;;;;;0.70;0.70;;;1.50;99.90;2.60;95773.00;;;;5069010;28;20427;-87
2023/01/16 05:01:21;;;;;;;2.83;0.90;;;1.50;99.90;2.50;95761.00;;;;5069908;28;20419;-87
2023/01/16 05:04:13;;;;;;;0.97;0.97;;;1.40;99.90;2.50;95759.00;;;;5068945;28;20504;-87
2023/01/16 05:07:04;;;;;;;0.70;0.70;;;1.60;99.90;2.50;95746.00;;;;5069740;28;20828;-87
2023/01/16 05:09:52;;;;;;;0.80;0.80;;;1.80;99.90;2.40;95743.00;;;;5069438;28;20458;-87
2023/01/16 05:12:41;;;;;;;0.30;0.30;;;1.50;99.90;2.50;95740.00;;;;5072795;28;20467;-88
2023/01/16 05:15:30;;;;;;;0.50;0.50;;;1.60;99.90;2.50;95726.00;;;;5068791;28;20470;-88
2023/01/16 05:18:19;;;;;;;1.37;0.77;;;1.80;99.90;2.50;95720.00;;;;5067721;28;20913;-88
2023/01/16 05:21:08;;;;;;;0.80;0.80;;;1.40;99.90;2.50;95706.00;;;;5069274;28;20419;-88
2023/01/16 05:23:58;;;;;;;1.63;0.80;;;1.40;99.90;2.50;95706.00;;;;5068733;28;20474;-88
2023/01/16 05:26:47;;;;;;;0.70;0.67;;;2.00;99.90;2.40;95700.00;;;;5069079;28;20426;-88
2023/01/16 05:29:35;;;;;;;0.77;0.77;;;1.40;99.90;2.40;95705.00;;;;5072631;28;20460;-88
2023/01/16 05:32:24;;;;;;;1.40;0.80;;;1.40;99.90;2.40;95693.00;;;;5081330;28;20446;-89
2023/01/16 05:35:13;;;;;;;1.07;0.97;;;1.40;99.90;2.20;95695.00;;;;5073486;28;20426;-88
2023/01/16 05:38:02;;;;;;;0.90;0.90;;;1.40;99.90;2.10;95689.00;;;;5085895;28;20442;-88
2023/01/16 05:40:53;;;;;;;1.00;1.00;;;2.00;99.90;2.10;95677.00;;;;5092223;28;20422;-88
2023/01/16 05:43:42;;;;;;;0.90;0.90;;;2.30;99.90;2.00;95681.00;;;;5083414;28;20461;-87
2023/01/16 05:46:30;;;;;;;0.80;0.80;;;1.80;99.90;2.00;95686.00;;;;5089845;28;20444;-88
2023/01/16 05:49:19;;;;;;;0.80;0.80;;;1.30;99.90;2.10;95695.00;;;;5082201;28;20433;-88
2023/01/16 05:52:08;;;;;;;0.73;0.73;;;1.60;99.90;2.10;95697.00;;;;5087011;28;20421;-88
2023/01/16 05:54:57;;;;;;;2.27;0.90;;;1.70;99.90;2.10;95699.00;;;;5080116;28;20936;-87
2023/01/16 05:57:47;;;;;;;0.80;0.70;;;1.20;99.90;2.30;95698.00;;;;5088310;28;20430;-88
2023/01/16 06:00:36;;;;;;;0.70;0.70;;;1.20;99.90;2.40;95680.00;;;;5088180;28;20418;-88
2023/01/16 06:03:24;;;;;;;0.70;0.70;;;1.20;99.90;2.40;95684.00;;;;5093011;28;20987;-89
2023/01/16 06:06:13;;;;;;;0.83;0.83;;;1.20;99.90;2.50;95690.00;;;;5088503;28;20437;-88
2023/01/16 06:09:04;;;;;;;1.33;1.23;;;1.60;99.90;2.40;95675.00;;;;5084414;28;20786;-88
2023/01/16 06:11:53;;;;;;;1.53;0.93;;;1.90;99.90;2.20;95664.00;;;;5084612;28;20441;-88
2023/01/16 06:14:43;;;;;;;1.50;1.40;;;1.90;99.90;2.30;95654.00;;;;5082605;28;20457;-88
2023/01/16 06:17:34;;;;;;;1.37;1.07;;;2.10;99.90;2.40;95645.00;;;;5095370;28;20961;-88
2023/01/16 06:20:24;;;;;;;2.17;1.20;;;1.30;99.90;2.50;95634.00;;;;5089544;28;20964;-89
2023/01/16 06:23:12;;;;;;;1.83;1.70;;;1.80;99.90;2.40;95632.00;;;;5072866;28;20441;-89
2023/01/16 06:26:02;;;;;;;2.17;1.87;;;1.60;99.90;2.20;95631.00;;;;5081688;28;21013;-89
2023/01/16 06:28:51;;;;;;;1.50;1.30;;;2.20;99.90;2.40;95620.00;;;;5085400;28;20429;-89
2023/01/16 06:31:41;;;;;;;1.37;1.07;;;1.60;99.90;2.50;95600.00;;;;5085301;28;21277;-89
2023/01/16 06:34:30;;;;;;;1.13;1.13;;;1.30;99.90;2.40;95598.00;;;;5092000;28;20437;-89
2023/01/16 06:37:19;;;;;;;2.00;1.70;;;1.30;99.90;2.50;95583.00;;;;5079599;28;20461;-88
2023/01/16 06:40:10;;;;;;;1.20;1.20;;;1.30;99.90;2.40;95572.00;;;;5082908;28;20435;-89
2023/01/16 06:42:59;;;;;;;1.03;1.00;;;1.30;99.90;2.40;95571.00;;;;5070755;28;20856;-89
2023/01/16 06:45:48;;;;;;;1.53;1.43;;;3.10;99.90;2.50;95565.00;;;;5072504;28;20473;-89
2023/01/16 06:48:38;;;;;;;2.80;1.20;;;1.90;99.90;2.40;95556.00;;;;5076214;28;20432;-88
2023/01/16 06:51:27;;;;;;;1.70;1.60;;;1.50;99.90;2.40;95550.00;;;;5085104;28;20943;-88
2023/01/16 06:54:16;;;;;;;1.23;1.20;;;2.20;99.90;2.40;95551.00;;;;5084791;28;20511;-89
2023/01/16 06:57:05;;;;;;;1.30;1.30;;;1.30;99.90;2.20;95557.00;;;;5079646;28;20425;-89
2023/01/16 06:59:53;;;;;;;1.77;1.67;;;1.80;99.90;2.20;95553.00;;;;5072818;28;20426;-89
2023/01/16 07:02:42;;;;;;;1.27;1.23;;;1.60;99.90;2.50;95552.00;;;;5071120;28;20446;-90
2023/01/16 07:05:33;;;;;;;2.33;1.37;;;1.30;99.90;2.50;95538.00;;;;5071379;28;20474;-88
2023/01/16 07:08:21;;;;;;;1.63;1.40;;;1.80;99.90;2.50;95539.00;;;;5088339;28;20441;-89
2023/01/16 07:11:10;;;;;;;1.67;1.57;;;1.30;99.90;2.60;95519.00;;;;5081390;28;20490;-88
2023/01/16 07:23:22;;;;;;;4.93;3.23;;;1.40;99.90;2.50;95508.00;;;;5091893;28;20450;-88
2023/01/16 07:26:13;;;;;;;7.53;6.33;;;1.50;99.90;2.50;95490.00;;;;5086103;28;20461;-89
2023/01/16 07:29:03;;;;;;;8.73;5.70;;;1.50;99.90;2.40;95494.00;;;;5085414;28;20827;-88
2023/01/16 07:31:52;;;;;;;9.97;6.33;;;1.60;99.90;2.20;95495.00;;;;5083128;28;20423;-87
2023/01/16 07:34:41;;;;;;;5.53;5.03;;;1.30;99.90;2.30;95496.00;;;;5087196;28;20437;-88
2023/01/16 07:37:30;;;;;;;8.73;5.73;;;1.30;99.90;2.20;95483.00;;;;5082723;28;20442;-87
2023/01/16 07:40:20;;;;;;;5.80;5.03;;;1.80;99.90;2.50;95486.00;;;;5081891;28;20422;-88
2023/01/16 07:43:08;;;;;;;8.00;4.90;;;1.40;99.90;2.60;95488.00;;;;5083071;28;20450;-87
2023/01/16 07:45:57;;;;;;;5.57;4.77;;;1.40;99.90;2.70;95484.00;;;;5082134;28;20484;-87
2023/01/16 07:48:46;;;;;;;9.43;7.93;;;1.80;99.90;2.50;95471.00;;;;5077385;28;20401;-88
2023/01/16 07:51:35;;;;;;;7.95;6.97;;;1.80;99.90;2.60;95463.00;;;;5070126;28;20384;-87
2023/01/16 07:54:23;;;;;;;6.60;5.40;;;1.50;99.90;2.80;95463.00;;;;5084327;28;20219;-87
2023/01/16 07:57:13;;;;;;;8.30;7.22;;;1.60;99.90;2.70;95435.00;;;;5088937;28;20780;-85
2023/01/16 08:00:05;;;;;;;8.73;5.43;;;1.60;99.90;2.90;95435.00;;;;5088219;28;20605;-85
2023/01/16 08:02:54;;;;;;;5.50;5.00;;;1.60;99.90;2.90;95428.00;;;;5080515;28;20861;-85
2023/01/16 08:05:44;;;;;;;6.83;6.23;;;1.80;99.90;2.90;95433.00;;;;5088535;28;20468;-85
2023/01/16 08:08:32;;;;;;;7.37;5.40;;;1.70;99.90;2.90;95426.00;;;;5070515;28;20424;-85
2023/01/16 08:11:37;;;;;;;9.87;3.83;;;1.70;99.90;2.90;95424.00;;;;5075274;28;21080;-85
2023/01/16 08:14:27;;;;;;;6.87;4.90;;;1.70;99.90;3.00;95415.00;;;;5076399;28;20220;-85
2023/01/16 08:17:16;;;;;;;5.90;5.30;;;1.70;99.90;3.00;95411.00;;;;5071611;28;20441;-85
2023/01/16 08:20:06;;;;;;;8.20;5.70;;;1.80;99.90;3.00;95408.00;;;;5086003;28;20978;-85
2023/01/16 08:22:57;;;;;;;5.40;4.33;;;1.80;99.90;3.00;95397.00;;;;5084966;28;20546;-85
2023/01/16 08:25:52;;;;;;;6.43;5.20;;;1.80;99.90;3.00;95382.00;;;;5082941;28;20863;-85
2023/01/16 08:28:41;;;;;;;6.53;5.17;;;1.80;99.90;3.00;95383.00;;;;5087254;28;20468;-85
2023/01/16 08:31:31;;;;;;;7.70;5.73;;;1.70;99.90;3.00;95383.00;;;;5088176;28;20425;-86
2023/01/16 08:34:20;;;;;;;5.13;4.40;;;1.80;99.90;3.00;95377.00;;;;5087797;28;20445;-86
2023/01/16 08:37:10;;;;;;;4.80;4.40;;;1.80;99.90;3.10;95367.00;;;;5080937;28;20427;-85
2023/01/16 08:39:59;;;;;;;7.50;5.47;;;1.80;99.90;3.10;95371.00;;;;5069629;28;20833;-87
2023/01/16 08:52:20;;;;;;;10.47;7.77;;;2.80;99.90;2.80;95338.00;;;;5081007;28;20382;-87
2023/01/16 08:55:09;;;;;;;12.53;6.60;;;2.30;99.90;2.70;95334.00;;;;5085719;28;20203;-86
2023/01/16 08:57:58;;;;;;;8.17;6.53;;;1.80;99.90;2.80;95328.00;;;;5083124;28;20438;-86
2023/01/16 09:00:47;;;;;;;6.37;4.60;;;2.00;99.90;2.80;95326.00;;;;5084265;28;21012;-87
2023/01/16 09:03:36;;;;;;;7.60;6.23;;;1.80;99.90;2.80;95319.00;;;;5088179;28;20453;-87
2023/01/16 09:06:27;;;;;;;6.33;5.37;;;1.80;99.90;2.80;95328.00;;;;5085225;28;20469;-87
2023/01/16 09:09:16;;;;;;;5.50;4.87;;;1.80;99.90;2.80;95326.00;;;;5084542;28;20532;-86
2023/01/16 09:15:11;;;;;;;9.63;6.03;;;1.70;99.90;3.00;95313.00;;;;5084297;28;20452;-86
2023/01/16 09:18:00;;;;;;;9.73;6.83;;;1.70;99.90;3.00;95305.00;;;;5082302;28;20553;-85
2023/01/16 09:20:49;;;;;;;8.37;6.30;;;1.80;99.90;3.10;95300.00;;;;5083659;28;20460;-85
2023/01/16 09:23:39;;;;;;;10.83;6.97;;;1.80;99.90;3.10;95301.00;;;;5084968;28;20493;-85
2023/01/16 09:26:27;;;;;;;10.10;7.33;;;2.10;99.90;3.10;95298.00;;;;5086300;28;21046;-85
2023/01/16 09:29:16;;;;;;;7.53;6.20;;;1.90;99.90;3.10;95295.00;;;;5079804;28;20437;-85
2023/01/16 09:32:08;;;;;;;7.70;5.77;;;1.90;99.90;3.10;95294.00;;;;5079580;28;20944;-85
2023/01/16 09:34:56;;;;;;;8.80;5.87;;;2.20;99.90;3.20;95284.00;;;;5083033;28;20952;-85
2023/01/16 09:37:46;;;;;;;5.07;4.57;;;2.00;99.90;3.20;95287.00;;;;5069962;28;20449;-85
2023/01/16 09:40:36;;;;;;;8.70;6.20;;;1.90;99.90;3.20;95283.00;;;;5078036;28;20410;-86
2023/01/16 09:43:40;;;;;;;7.77;6.07;;;2.20;99.90;3.20;95265.00;;;;5075554;28;20462;-86
2023/01/16 09:46:34;;;;;;;9.17;4.67;;;1.90;99.90;3.20;95261.00;;;;5079547;28;20465;-85
2023/01/16 09:49:26;;;;;;;7.07;5.13;;;2.00;99.90;3.20;95259.00;;;;5067616;28;20422;-86
2023/01/16 09:58:56;;;;;;;9.40;6.63;;;2.10;99.90;3.30;95239.00;;;;5067539;28;20750;-87
2023/01/16 10:01:53;;;;;;;7.73;6.00;;;2.10;99.90;3.30;95236.00;;;;5074297;28;20472;-87
2023/01/16 10:04:45;;;;;;;8.17;7.37;;;2.30;99.90;3.10;95241.00;;;;5078008;28;20434;-87
2023/01/16 10:07:49;;;;;;;8.07;5.77;;;2.10;99.90;3.10;95228.00;;;;5067467;28;20470;-87
2023/01/16 10:10:45;;;;;;;11.60;6.97;;;2.10;99.90;3.20;95224.00;;;;5072614;28;20206;-87
2023/01/16 10:13:51;;;;;;;8.87;6.00;;;3.40;99.90;3.20;95208.00;;;;5083561;28;20469;-87
2023/01/16 10:16:55;;;;;;;8.13;5.60;;;2.00;99.90;3.10;95212.00;;;;5088808;28;20803;-86
2023/01/16 10:20:15;;;;;;;8.17;5.57;;;2.00;99.90;3.20;95193.00;;;;5082419;28;20471;-86
2023/01/16 10:23:23;;;;;;;13.48;10.23;;;2.30;99.90;3.10;95177.00;;;;5074616;28;20881;-86
2023/01/16 10:26:23;;;;;;;11.60;8.57;;;2.40;99.90;3.30;95164.00;;;;5089270;28;20254;-86
2023/01/16 10:29:25;;;;;;;9.77;7.07;;;2.10;99.90;3.40;95159.00;;;;5085286;28;20199;-85
2023/01/16 10:32:25;;;;;;;10.47;8.10;;;2.10;99.90;3.40;95164.00;;;;5089340;28;20210;-86
2023/01/16 10:35:18;;;;;;;14.70;9.33;;;2.10;99.90;3.30;95155.00;;;;5089154;28;20418;-86
2023/01/16 10:38:25;;;;;;;13.20;8.20;;;2.10;99.90;3.20;95130.00;;;;5090454;28;20534;-85
2023/01/16 10:50:47;;;;;;;11.37;7.40;;;2.20;99.90;3.10;95119.00;;;;5088287;28;20433;-85
2023/01/16 10:53:38;;;;;;;10.90;7.77;;;2.20;99.90;3.00;95120.00;;;;5086167;28;20539;-85
2023/01/16 10:56:28;;;;;;;14.57;8.30;;;2.10;99.90;3.20;95109.00;;;;5089208;28;20434;-85
2023/01/16 10:59:18;;;;;;;12.50;7.23;;;2.10;99.90;3.10;95095.00;;;;5085416;28;20430;-86
2023/01/16 11:02:20;;;;;;;11.03;6.97;;;2.10;99.90;3.30;95083.00;;;;5089089;28;20843;-86
2023/01/16 11:05:28;;;;;;;8.47;6.50;;;2.10;99.90;3.50;95081.00;;;;5092762;28;20455;-86
2023/01/16 11:08:19;;;;;;;8.90;6.93;;;2.10;99.90;3.60;95056.00;;;;5089660;28;20495;-85
2023/01/16 11:20:39;;;;;;;6.00;4.97;;;2.40;99.90;3.60;95024.00;;;;5092066;28;20438;-85
2023/01/16 11:23:38;;;;;;;6.70;5.13;;;2.40;99.90;3.70;95011.00;;;;5099987;28;20958;-86
2023/01/16 11:26:28;;;;;;;4.97;4.23;;;2.50;99.90;3.90;95000.00;;;;5094299;28;20441;-86
2023/01/16 11:29:23;;;;;;;4.13;3.10;;;2.50;99.90;3.70;94996.00;;;;5092679;28;20943;-86
2023/01/16 11:32:14;;;;;;;5.13;4.63;;;3.50;99.90;3.80;94997.00;;;;5097181;28;20935;-86
2023/01/16 11:35:03;;;;;;;5.73;5.17;;;2.60;99.90;3.90;94994.00;;;;5097902;28;20418;-86
2023/01/16 11:37:53;;;;;;;4.60;3.73;;;2.60;99.90;4.00;94990.00;;;;5086068;28;20438;-85
2023/01/16 11:40:48;;;;;;;4.63;4.23;;;2.60;99.90;3.90;94996.00;;;;5085910;28;20268;-86
2023/01/16 11:46:44;;;;;;;6.30;3.60;;;3.50;99.90;3.90;94974.00;;;;5089594;28;20710;-86
2023/01/16 11:49:37;;;;;;;4.63;4.13;;;3.50;99.90;3.90;94962.00;;;;5076759;28;20200;-86
2023/01/16 11:52:29;;;;;;;7.53;3.80;;;2.70;99.90;3.90;94956.00;;;;5082497;28;20649;-85
2023/01/16 11:55:18;;;;;;;3.37;2.47;;;2.70;99.90;4.00;94941.00;;;;5090423;28;20205;-86
2023/01/16 11:58:14;;;;;;;19.90;9.83;;;2.70;99.90;4.10;94935.00;;;;5089663;28;20203;-86
2023/01/16 12:01:08;;;;;;;9.47;7.23;;;2.70;99.90;4.00;94918.00;;;;5088864;28;20196;-85
2023/01/16 12:04:14;;;;;;;14.13;8.60;;;2.80;99.90;4.00;94921.00;;;;5082051;28;20252;-85
2023/01/16 12:07:14;;;;;;;5.37;3.90;;;3.10;99.90;3.90;94922.00;;;;5077037;28;20280;-85
2023/01/16 12:10:09;;;;;;;4.53;4.10;;;2.70;99.90;3.90;94906.00;;;;5089992;28;20190;-86
2023/01/16 12:16:22;;;;;;;9.03;6.33;;;2.70;99.90;3.90;94912.00;;;;5044223;28;20431;-85
2023/01/16 12:19:47;;;;;;;9.30;5.23;;;2.70;99.90;3.90;94911.00;;;;5072328;28;20203;-84
2023/01/16 12:22:57;;;;;;;4.87;4.30;;;2.70;99.90;3.90;94904.00;;;;5095079;28;20226;-85
2023/01/16 12:25:56;;;;;;;5.43;4.87;;;2.70;99.90;3.80;94881.00;;;;5090410;28;20195;-85
2023/01/16 12:28:58;;;;;;;4.70;4.00;;;2.80;99.90;3.80;94871.00;;;;5092949;28;20468;-85
2023/01/16 12:32:24;;;;;;;4.73;3.10;;;2.60;99.90;3.90;94858.00;;;;5098072;28;20202;-85
2023/01/16 12:35:42;;;;;;;4.43;3.30;;;2.70;99.90;3.90;94856.00;;;;5082242;28;20452;-85
2023/01/16 12:38:39;;;;;;;5.30;3.90;;;2.70;99.90;3.90;94855.00;;;;5083139;28;20203;-85
2023/01/16 12:45:04;;;;;;;3.53;3.20;;;2.70;99.90;4.00;94825.00;;;;5072714;28;20203;-86
2023/01/16 12:48:08;;;;;;;4.30;3.20;;;2.70;99.90;4.10;94825.00;;;;5068714;28;20461;-85
2023/01/16 12:51:35;;;;;;;4.93;3.37;;;2.90;99.90;4.20;94826.00;;;;5069779;28;20465;-85
2023/01/16 12:54:40;;;;;;;5.13;3.40;;;2.80;99.90;4.20;94816.00;;;;5069406;28;20449;-86
2023/01/16 12:58:04;;;;;;;3.67;2.83;;;2.80;99.90;4.10;94815.00;;;;5074245;28;20468;-85
2023/01/16 13:01:11;;;;;;;3.40;2.97;;;2.90;99.90;4.10;94802.00;;;;5087086;28;20195;-85
2023/01/16 13:04:08;;;;;;;3.27;2.60;;;2.90;99.90;4.10;94808.00;;;;5068999;28;20588;-85
2023/01/16 13:07:01;;;;;;;3.47;3.17;;;4.00;99.90;4.10;94805.00;;;;5068214;28;20192;-85
2023/01/16 13:13:20;;;;;;;3.37;2.47;;;2.80;99.90;4.00;94775.00;;;;5090784;28;20210;-86
2023/01/16 13:13:23;;;;;;;3.57;3.27;;;2.80;99.90;4.10;94777.00;;;;5077527;28;20278;-85
2023/01/16 13:16:18;;;;;;;3.93;3.07;;;2.80;99.90;4.10;94781.00;;;;5082140;28;20503;-85
2023/01/16 13:19:14;;;;;;;5.13;3.10;;;2.80;99.90;4.00;94783.00;;;;5078076;28;20474;-85
2023/01/16 13:22:20;;;;;;;3.40;3.00;;;2.80;99.90;4.00;94768.00;;;;5080772;28;20233;-85
2023/01/16 13:25:19;;;;;;;3.70;3.10;;;2.80;99.90;4.00;94769.00;;;;5083648;28;20211;-85
2023/01/16 13:28:19;;;;;;;3.27;2.90;;;2.80;99.90;4.10;94754.00;;;;5083090;28;20680;-85
2023/01/16 13:31:20;;;;;;;3.53;3.23;;;2.80;99.90;4.10;94742.00;;;;5089355;28;20486;-86
2023/01/16 13:34:17;;;;;;;9.43;5.70;;;2.80;99.90;4.20;94726.00;;;;5088450;28;20227;-85
2023/01/16 13:37:45;;;;;;;5.97;5.37;;;2.80;99.90;4.10;94729.00;;;;5081800;28;20602;-86
2023/01/16 13:41:07;;;;;;;3.27;2.93;;;2.90;99.90;4.10;94719.00;;;;5075366;28;20679;-87
2023/01/16 13:47:11;;;;;;;3.27;2.97;;;2.80;99.90;4.10;94700.00;;;;5094374;28;20194;-87
2023/01/16 13:50:07;;;;;;;5.23;3.27;;;2.80;99.90;4.10;94689.00;;;;5082963;28;20232;-86
2023/01/16 13:53:02;;;;;;;2.83;2.60;;;2.80;99.90;4.20;94694.00;;;;5084534;28;20223;-87
2023/01/16 13:56:01;;;;;;;4.53;3.03;;;3.80;99.90;4.20;94697.00;;;;5070076;28;20192;-86
2023/01/16 13:58:57;;;;;;;6.30;4.17;;;2.90;99.90;4.10;94688.00;;;;5070864;28;20208;-87
2023/01/16 14:01:57;;;;;;;3.50;2.90;;;2.90;99.90;4.10;94667.00;;;;5079595;28;20195;-86
2023/01/16 14:05:23;;;;;;;4.80;3.33;;;2.90;99.90;4.10;94675.00;;;;5073118;28;20566;-87
2023/01/16 14:09:07;;;;;;;5.47;3.93;;;2.80;99.90;3.80;94659.00;;;;5079813;28;20750;-88
2023/01/16 14:12:01;;;;;;;3.47;3.17;;;2.70;99.90;3.80;94661.00;;;;5089849;28;20219;-87
2023/01/16 14:18:19;;;;;;;3.53;3.23;;;2.60;99.90;3.90;94661.00;;;;5079461;28;20422;-87
2023/01/16 14:21:19;;;;;;;4.20;3.33;;;2.50;99.90;3.80;94648.00;;;;5081416;28;20483;-87